Time;durP1;ratioP1;P1;durP2;ratioP2;P2;SDS_P1;SDS_P2;PMS_P1;PMS_P2;Temp;Humidity;BMP_temperature;BMP_pressure;BME280_temperature;BME280_humidity;BME280_pressure;Samples;Min_cycle;Max_cycle;Signal;HPM_P1;HPM_P2
2024/01/07 00:01:22;;;;;;;16.17;11.60;;;7.80;81.60;;;;;;5013130;28;20468;-79
2024/01/07 00:03:50;;;;;;;20.60;12.07;;;7.80;81.60;;;;;;5028917;28;20460;-78
2024/01/07 00:06:19;;;;;;;18.87;12.10;;;7.80;81.60;;;;;;5017338;28;20483;-79
2024/01/07 00:08:47;;;;;;;22.90;12.23;;;7.80;81.70;;;;;;5015350;28;20462;-78
2024/01/07 00:11:17;;;;;;;16.20;11.57;;;7.80;81.70;;;;;;5017664;28;20476;-79
2024/01/07 00:13:46;;;;;;;18.33;12.60;;;7.80;81.70;;;;;;5029642;28;21048;-80
2024/01/07 00:16:14;;;;;;;15.57;11.73;;;7.80;81.70;;;;;;5009915;28;20488;-78
2024/01/07 00:18:44;;;;;;;15.70;11.40;;;7.80;81.70;;;;;;5007816;28;20216;-78
2024/01/07 00:21:12;;;;;;;22.03;12.13;;;7.80;81.70;;;;;;5028636;28;20457;-79
2024/01/07 00:23:40;;;;;;;15.33;12.17;;;7.80;81.70;;;;;;5007488;28;20819;-80
2024/01/07 00:26:10;;;;;;;15.87;11.47;;;7.80;81.70;;;;;;5015129;28;20456;-79
2024/01/07 00:28:38;;;;;;;19.03;13.00;;;7.80;81.80;;;;;;5015303;28;20457;-79
2024/01/07 00:31:12;;;;;;;18.20;12.40;;;7.80;81.80;;;;;;5010903;28;20520;-81
2024/01/07 00:33:40;;;;;;;18.60;12.60;;;7.80;81.80;;;;;;5022019;28;20995;-80
2024/01/07 00:36:09;;;;;;;18.03;13.70;;;7.80;81.70;;;;;;5012003;28;20461;-78
2024/01/07 00:38:37;;;;;;;20.57;12.27;;;7.80;81.70;;;;;;5013277;28;20464;-79
2024/01/07 00:41:05;;;;;;;15.77;10.37;;;7.70;81.70;;;;;;5015001;28;20464;-78
2024/01/07 00:43:33;;;;;;;18.43;11.90;;;7.70;81.80;;;;;;5021840;28;20958;-78
2024/01/07 00:46:01;;;;;;;17.10;12.20;;;7.70;81.80;;;;;;5015708;28;20500;-79
2024/01/07 00:48:29;;;;;;;17.97;11.63;;;7.70;81.80;;;;;;5012263;28;20454;-80
2024/01/07 00:50:58;;;;;;;16.83;11.00;;;7.70;81.90;;;;;;5011825;28;20484;-80
2024/01/07 00:53:27;;;;;;;18.50;12.77;;;7.70;81.90;;;;;;5017333;28;20483;-79
2024/01/07 00:55:55;;;;;;;18.27;12.60;;;7.70;81.90;;;;;;5014679;28;20984;-78
2024/01/07 00:58:23;;;;;;;23.13;13.60;;;7.70;81.90;;;;;;5012481;28;20856;-79
2024/01/07 01:00:53;;;;;;;21.37;12.90;;;7.70;81.90;;;;;;5030243;28;20495;-79
2024/01/07 01:03:26;;;;;;;22.30;14.60;;;7.70;81.90;;;;;;5016906;28;20527;-80
2024/01/07 01:05:58;;;;;;;21.90;12.55;;;7.70;81.90;;;;;;5026761;28;20457;-79
2024/01/07 01:08:27;;;;;;;17.60;12.80;;;7.70;82.00;;;;;;5021330;28;20219;-79
2024/01/07 01:10:55;;;;;;;20.37;13.80;;;7.70;82.00;;;;;;5022883;28;20891;-79
2024/01/07 01:13:23;;;;;;;20.77;13.03;;;7.70;82.00;;;;;;5014051;28;20468;-79
2024/01/07 01:15:52;;;;;;;20.00;13.13;;;7.70;82.10;;;;;;5032749;28;20453;-79
2024/01/07 01:18:20;;;;;;;19.17;13.10;;;7.70;82.10;;;;;;5015571;28;20457;-78
2024/01/07 01:20:48;;;;;;;21.13;12.93;;;7.70;82.10;;;;;;5018683;28;20456;-78
2024/01/07 01:23:16;;;;;;;21.90;14.23;;;7.70;82.10;;;;;;5028450;28;20456;-80
2024/01/07 01:25:45;;;;;;;26.90;13.90;;;7.70;82.10;;;;;;5028533;28;20457;-80
2024/01/07 01:28:13;;;;;;;22.33;13.27;;;7.70;82.10;;;;;;5021011;28;21422;-80
2024/01/07 01:30:41;;;;;;;24.10;14.30;;;7.70;82.10;;;;;;5027059;28;20473;-78
2024/01/07 01:33:10;;;;;;;19.03;13.00;;;7.70;82.10;;;;;;5016474;28;20487;-78
2024/01/07 01:35:38;;;;;;;23.67;13.13;;;7.70;82.20;;;;;;5017750;28;20487;-78
2024/01/07 01:38:06;;;;;;;25.37;14.83;;;7.70;82.20;;;;;;5033758;28;20476;-78
2024/01/07 01:40:34;;;;;;;28.20;16.77;;;7.70;82.20;;;;;;5034373;28;20559;-78
2024/01/07 01:43:04;;;;;;;20.50;13.53;;;7.70;82.10;;;;;;5015448;28;20466;-78
2024/01/07 01:45:32;;;;;;;29.50;17.47;;;7.70;82.20;;;;;;5032790;28;20463;-78
2024/01/07 01:48:01;;;;;;;32.03;16.43;;;7.70;82.10;;;;;;5012931;28;20473;-78
2024/01/07 01:50:29;;;;;;;30.10;18.83;;;7.70;82.10;;;;;;5014092;28;20460;-78
2024/01/07 01:52:57;;;;;;;31.70;19.07;;;7.70;82.00;;;;;;5015523;28;20497;-78
2024/01/07 01:55:25;;;;;;;33.67;19.67;;;7.60;81.90;;;;;;5013048;28;20483;-78
2024/01/07 01:57:54;;;;;;;28.97;19.27;;;7.60;82.00;;;;;;5011016;28;20462;-78
2024/01/07 02:00:24;;;;;;;27.40;17.30;;;7.60;82.10;;;;;;5013398;28;20480;-78
2024/01/07 02:02:52;;;;;;;26.60;13.77;;;7.60;82.10;;;;;;5010041;28;20491;-78
2024/01/07 02:05:21;;;;;;;47.27;25.67;;;7.60;82.10;;;;;;5014582;28;20555;-78
2024/01/07 02:07:52;;;;;;;39.60;22.83;;;7.60;82.00;;;;;;5014751;28;20514;-78
2024/01/07 02:10:21;;;;;;;27.00;18.65;;;7.50;81.90;;;;;;5034017;28;20770;-78
2024/01/07 02:12:49;;;;;;;31.73;17.90;;;7.50;82.00;;;;;;5021665;28;20229;-80
2024/01/07 02:15:17;;;;;;;26.63;14.93;;;7.50;82.00;;;;;;5036795;28;20639;-80
2024/01/07 02:17:47;;;;;;;20.47;13.30;;;7.50;81.90;;;;;;5034314;28;20457;-81
2024/01/07 02:20:15;;;;;;;23.43;15.40;;;7.40;82.10;;;;;;5011704;28;20522;-79
2024/01/07 02:22:42;;;;;;;24.83;15.87;;;7.40;82.20;;;;;;5012398;28;20520;-78
2024/01/07 02:25:12;;;;;;;28.70;17.07;;;7.40;82.10;;;;;;5009358;28;20456;-78
2024/01/07 02:27:40;;;;;;;26.07;16.10;;;7.40;82.10;;;;;;5014277;28;20729;-78
2024/01/07 02:30:09;;;;;;;49.03;27.20;;;7.40;82.00;;;;;;5008838;28;20548;-78
2024/01/07 02:32:37;;;;;;;44.87;23.77;;;7.40;82.10;;;;;;5020530;28;20316;-78
2024/01/07 02:35:06;;;;;;;29.30;18.10;;;7.40;82.20;;;;;;5007580;28;20985;-78
2024/01/07 02:37:35;;;;;;;26.37;16.20;;;7.40;82.20;;;;;;5008130;28;21120;-78
2024/01/07 02:40:03;;;;;;;29.10;17.67;;;7.40;82.20;;;;;;5007805;28;20467;-78
2024/01/07 02:42:33;;;;;;;25.80;16.10;;;7.40;82.20;;;;;;5004204;28;20460;-78
2024/01/07 02:45:01;;;;;;;29.43;17.57;;;7.40;82.20;;;;;;5023139;28;20449;-78
2024/01/07 02:47:29;;;;;;;34.80;21.07;;;7.40;82.30;;;;;;5002147;28;20532;-78
2024/01/07 02:49:58;;;;;;;23.77;16.43;;;7.40;82.30;;;;;;5010393;28;20480;-78
2024/01/07 02:52:26;;;;;;;32.40;20.13;;;7.40;82.30;;;;;;5009969;28;20480;-79
2024/01/07 02:54:54;;;;;;;30.57;18.70;;;7.40;82.30;;;;;;5018185;28;20880;-79
2024/01/07 02:57:22;;;;;;;32.07;20.03;;;7.40;82.40;;;;;;5015713;28;20469;-78
2024/01/07 02:59:52;;;;;;;26.17;16.03;;;7.40;82.40;;;;;;5015519;28;20457;-78
2024/01/07 03:02:20;;;;;;;54.88;28.90;;;7.40;82.50;;;;;;5015502;28;20540;-79
2024/01/07 03:04:48;;;;;;;24.33;14.20;;;7.40;82.30;;;;;;5019803;28;20216;-80
2024/01/07 03:07:16;;;;;;;24.40;14.40;;;7.40;82.20;;;;;;5014230;28;21100;-80
2024/01/07 03:09:44;;;;;;;31.33;16.53;;;7.40;82.40;;;;;;5010582;28;20242;-79
2024/01/07 03:12:17;;;;;;;23.80;15.93;;;7.30;82.40;;;;;;5013775;28;20808;-80
2024/01/07 03:14:46;;;;;;;41.43;22.17;;;7.30;82.40;;;;;;5009195;28;20457;-79
2024/01/07 03:17:17;;;;;;;30.20;16.88;;;7.20;82.40;;;;;;5013232;28;20948;-78
2024/01/07 03:19:47;;;;;;;37.30;19.98;;;7.20;82.40;;;;;;5023690;28;20214;-80
2024/01/07 03:22:15;;;;;;;41.00;23.30;;;7.10;82.50;;;;;;5009339;28;20202;-80
2024/01/07 03:24:43;;;;;;;34.63;19.30;;;7.10;82.60;;;;;;5017953;28;20461;-79
2024/01/07 03:27:11;;;;;;;26.47;15.67;;;7.10;82.80;;;;;;5009394;28;20475;-80
2024/01/07 03:29:41;;;;;;;19.10;13.13;;;7.00;82.80;;;;;;5014438;28;20482;-79
2024/01/07 03:32:09;;;;;;;22.80;14.05;;;7.00;82.90;;;;;;5008094;28;20477;-78
2024/01/07 03:34:40;;;;;;;26.40;16.20;;;7.10;83.00;;;;;;5008846;28;20213;-78
2024/01/07 03:37:08;;;;;;;36.95;20.92;;;7.10;83.00;;;;;;5006936;28;20464;-78
2024/01/07 03:39:36;;;;;;;38.33;21.63;;;7.10;83.00;;;;;;5003119;28;20213;-77
2024/01/07 03:42:05;;;;;;;43.00;25.00;;;7.10;82.90;;;;;;5002752;28;20197;-77
2024/01/07 03:44:33;;;;;;;50.30;27.80;;;7.20;83.00;;;;;;5008265;28;20288;-77
2024/01/07 03:47:01;;;;;;;45.05;25.08;;;7.20;83.00;;;;;;5008234;28;20194;-77
2024/01/07 03:49:29;;;;;;;48.30;24.67;;;7.20;82.90;;;;;;5011148;28;20293;-78
2024/01/07 03:51:59;;;;;;;28.20;17.83;;;7.10;82.90;;;;;;5004728;28;20233;-78
2024/01/07 03:54:27;;;;;;;30.92;22.00;;;7.10;83.00;;;;;;5005827;28;20930;-78
2024/01/07 03:56:55;;;;;;;40.97;25.87;;;7.10;83.00;;;;;;5009866;28;20285;-79
2024/01/07 03:59:24;;;;;;;24.93;17.10;;;7.10;83.00;;;;;;5004544;28;20483;-77
2024/01/07 04:01:54;;;;;;;39.00;22.40;;;7.10;83.10;;;;;;5007749;28;20967;-77
2024/01/07 04:04:22;;;;;;;27.03;16.00;;;7.10;83.00;;;;;;5007327;28;20468;-78
2024/01/07 04:06:50;;;;;;;35.00;19.53;;;7.00;83.00;;;;;;5009876;28;20480;-78
2024/01/07 04:09:20;;;;;;;28.90;16.17;;;7.00;83.10;;;;;;5024218;28;21008;-79
2024/01/07 04:11:49;;;;;;;28.83;15.60;;;7.00;83.10;;;;;;5016381;28;20194;-79
2024/01/07 04:14:17;;;;;;;27.65;17.00;;;6.90;83.10;;;;;;5011527;28;20948;-78
2024/01/07 04:16:45;;;;;;;38.33;20.77;;;6.90;83.20;;;;;;5006333;28;20376;-78
2024/01/07 04:19:14;;;;;;;26.92;15.60;;;6.90;83.30;;;;;;5005564;28;20722;-78
2024/01/07 04:21:46;;;;;;;36.53;20.83;;;6.90;83.20;;;;;;5019898;28;20631;-78
2024/01/07 04:24:15;;;;;;;45.00;22.52;;;6.90;83.20;;;;;;5005160;28;20277;-78
2024/01/07 04:26:44;;;;;;;34.00;19.07;;;6.90;83.10;;;;;;5008359;28;20627;-79
2024/01/07 04:29:12;;;;;;;26.70;15.77;;;6.80;83.00;;;;;;5019080;28;20479;-79
2024/01/07 04:31:40;;;;;;;25.08;16.77;;;6.80;83.00;;;;;;5025762;28;20230;-79
2024/01/07 04:34:08;;;;;;;28.48;16.02;;;6.70;83.00;;;;;;5009049;28;20244;-80
2024/01/07 04:36:36;;;;;;;37.30;19.27;;;6.70;83.00;;;;;;5007788;28;20292;-77
2024/01/07 04:39:04;;;;;;;37.30;19.47;;;6.70;83.00;;;;;;5013930;28;20464;-77
2024/01/07 04:41:32;;;;;;;31.53;17.30;;;6.70;83.00;;;;;;5018611;28;20876;-79
2024/01/07 04:44:02;;;;;;;25.70;14.90;;;6.70;83.00;;;;;;5019248;28;20537;-79
2024/01/07 04:46:30;;;;;;;28.53;14.93;;;6.70;83.00;;;;;;5026311;28;20461;-79
2024/01/07 04:49:02;;;;;;;22.50;14.20;;;6.80;83.00;;;;;;5016073;28;20463;-79
2024/01/07 04:51:30;;;;;;;25.45;16.27;;;6.80;82.90;;;;;;5016167;28;20484;-78
2024/01/07 04:53:58;;;;;;;19.80;12.60;;;6.80;82.90;;;;;;5011882;28;20206;-79
2024/01/07 04:56:26;;;;;;;16.73;10.75;;;6.80;82.90;;;;;;5007021;28;20830;-80
2024/01/07 04:58:54;;;;;;;19.45;11.15;;;6.80;82.70;;;;;;5004116;28;20213;-79
2024/01/07 05:01:25;;;;;;;14.00;9.57;;;6.70;82.60;;;;;;5011040;28;20217;-79
2024/01/07 05:03:53;;;;;;;18.75;11.05;;;6.70;82.50;;;;;;5008412;28;20226;-79
2024/01/07 05:06:21;;;;;;;15.57;9.70;;;6.70;82.50;;;;;;5009954;28;20210;-79
2024/01/07 05:08:49;;;;;;;14.83;9.33;;;6.70;82.50;;;;;;5013179;28;20449;-78
2024/01/07 05:11:20;;;;;;;14.07;8.52;;;6.70;82.20;;;;;;5007797;28;20475;-79
2024/01/07 05:13:48;;;;;;;13.32;8.38;;;6.70;82.10;;;;;;5007118;28;20221;-79
2024/01/07 05:16:20;;;;;;;15.75;8.82;;;6.60;82.10;;;;;;5011747;28;20202;-80
2024/01/07 05:18:49;;;;;;;17.42;10.52;;;6.60;82.00;;;;;;5009667;28;20285;-79
2024/01/07 05:21:19;;;;;;;13.02;7.85;;;6.60;82.00;;;;;;5010507;28;20204;-78
2024/01/07 05:23:47;;;;;;;19.92;12.18;;;6.60;81.90;;;;;;5009136;28;20289;-79
2024/01/07 05:26:16;;;;;;;22.98;11.90;;;6.50;81.80;;;;;;5004396;28;20526;-78
2024/01/07 05:28:44;;;;;;;19.00;11.80;;;6.50;81.70;;;;;;5011697;28;20623;-79
2024/01/07 05:31:15;;;;;;;19.30;11.65;;;6.50;81.80;;;;;;5011101;28;20232;-79
2024/01/07 05:33:44;;;;;;;21.42;13.73;;;6.50;81.70;;;;;;5015601;28;20744;-78
2024/01/07 05:36:14;;;;;;;22.40;13.00;;;6.40;81.50;;;;;;5013512;28;20211;-78
2024/01/07 05:38:42;;;;;;;24.40;12.75;;;6.40;81.60;;;;;;5013875;28;20198;-78
2024/01/07 05:41:10;;;;;;;23.80;12.70;;;6.20;81.40;;;;;;5028868;28;20229;-78
2024/01/07 05:43:38;;;;;;;36.97;17.30;;;6.20;81.40;;;;;;5013324;28;20205;-79
2024/01/07 05:46:07;;;;;;;23.25;13.77;;;6.10;81.50;;;;;;5016992;28;20483;-78
2024/01/07 05:48:42;;;;;;;28.48;12.90;;;6.10;81.50;;;;;;5016911;28;20233;-77
2024/01/07 05:51:16;;;;;;;18.83;10.93;;;6.10;81.40;;;;;;5003861;28;20233;-77
2024/01/07 05:53:45;;;;;;;28.75;14.48;;;5.90;81.30;;;;;;5005056;28;20209;-77
2024/01/07 05:56:13;;;;;;;41.28;14.38;;;5.90;81.30;;;;;;5003975;28;20201;-77
2024/01/07 05:58:41;;;;;;;21.00;11.77;;;5.90;81.20;;;;;;5010061;28;20209;-79
2024/01/07 06:01:10;;;;;;;19.80;11.10;;;5.90;81.20;;;;;;5015274;28;20309;-78
2024/01/07 06:03:39;;;;;;;17.08;11.57;;;5.80;81.20;;;;;;5018576;28;20267;-79
2024/01/07 06:06:07;;;;;;;17.70;10.73;;;5.90;81.30;;;;;;5032128;28;20195;-79
2024/01/07 06:08:36;;;;;;;16.23;11.02;;;5.90;81.20;;;;;;5014103;28;20213;-79
2024/01/07 06:11:04;;;;;;;15.07;10.13;;;5.90;81.10;;;;;;5014936;28;20277;-79
2024/01/07 06:13:32;;;;;;;20.75;11.48;;;5.90;81.10;;;;;;5013991;28;20236;-78
2024/01/07 06:16:00;;;;;;;17.15;10.05;;;5.90;81.10;;;;;;5013131;28;20236;-77
2024/01/07 06:18:28;;;;;;;17.75;9.32;;;6.00;80.80;;;;;;5016680;28;20639;-78
2024/01/07 06:20:58;;;;;;;19.88;10.40;;;5.90;80.80;;;;;;5017541;28;20252;-78
2024/01/07 06:23:26;;;;;;;16.80;9.05;;;5.90;80.70;;;;;;5030857;28;20210;-78
2024/01/07 06:25:55;;;;;;;15.77;10.07;;;5.80;80.60;;;;;;5014712;28;20318;-78
2024/01/07 06:28:23;;;;;;;14.57;8.57;;;5.80;80.50;;;;;;5028665;28;20206;-78
2024/01/07 06:30:51;;;;;;;15.68;9.25;;;5.80;80.60;;;;;;5029194;28;20226;-79
2024/01/07 06:33:20;;;;;;;15.40;9.70;;;5.70;80.40;;;;;;5014334;28;20201;-78
2024/01/07 06:35:48;;;;;;;17.38;9.68;;;5.70;80.50;;;;;;5013043;28;20228;-79
2024/01/07 06:38:16;;;;;;;14.50;9.48;;;5.70;80.50;;;;;;5017925;28;20208;-78
2024/01/07 06:40:44;;;;;;;19.45;9.50;;;5.70;80.40;;;;;;5017131;28;20201;-79
2024/01/07 06:43:13;;;;;;;19.88;9.75;;;5.50;80.20;;;;;;5013005;28;20565;-78
2024/01/07 06:45:41;;;;;;;36.65;17.88;;;5.50;80.10;;;;;;5015316;28;21001;-78
2024/01/07 06:48:09;;;;;;;27.60;12.73;;;5.40;80.10;;;;;;5013509;28;20211;-78
2024/01/07 06:50:38;;;;;;;25.85;14.10;;;5.40;80.20;;;;;;5009645;28;20214;-77
2024/01/07 06:53:05;;;;;;;18.05;10.35;;;5.40;80.10;;;;;;5010284;28;20197;-78
2024/01/07 06:55:33;;;;;;;16.20;9.98;;;5.30;80.20;;;;;;5006642;28;20230;-78
2024/01/07 06:58:01;;;;;;;34.17;17.92;;;5.30;80.10;;;;;;5006006;28;20516;-78
2024/01/07 07:00:31;;;;;;;21.50;11.60;;;5.30;80.00;;;;;;5005559;28;20720;-78
2024/01/07 07:02:59;;;;;;;19.45;12.20;;;5.20;80.10;;;;;;5010432;28;20210;-78
2024/01/07 07:05:27;;;;;;;25.10;15.45;;;5.20;80.00;;;;;;5012282;28;20204;-78
2024/01/07 07:07:55;;;;;;;20.23;12.88;;;5.20;79.90;;;;;;5009551;28;20241;-77
2024/01/07 07:10:23;;;;;;;18.67;10.10;;;5.10;79.80;;;;;;5006293;28;20220;-79
2024/01/07 07:12:52;;;;;;;20.10;13.52;;;5.00;79.80;;;;;;5020530;28;20198;-80
2024/01/07 07:15:21;;;;;;;22.05;12.98;;;5.00;79.90;;;;;;5018150;28;20237;-77
2024/01/07 07:17:51;;;;;;;19.20;11.52;;;5.00;80.00;;;;;;5020468;28;20207;-77
2024/01/07 07:20:19;;;;;;;12.45;7.07;;;5.00;80.00;;;;;;5010950;28;20704;-78
2024/01/07 07:22:47;;;;;;;15.95;10.30;;;5.00;79.80;;;;;;5013538;28;20434;-78
2024/01/07 07:25:15;;;;;;;16.30;9.88;;;5.00;79.80;;;;;;5007574;28;20200;-77
2024/01/07 07:27:44;;;;;;;14.60;9.27;;;5.00;79.70;;;;;;5004768;28;20267;-78
2024/01/07 07:30:12;;;;;;;14.38;8.30;;;4.90;79.60;;;;;;5012600;28;20213;-77
2024/01/07 07:32:42;;;;;;;14.15;8.35;;;4.80;79.50;;;;;;5004951;28;20244;-77
2024/01/07 07:35:12;;;;;;;14.43;9.32;;;4.80;79.40;;;;;;5004281;28;20233;-78
2024/01/07 07:37:39;;;;;;;14.60;9.50;;;4.80;79.20;;;;;;5004535;28;20549;-78
2024/01/07 07:40:09;;;;;;;14.27;8.65;;;4.70;79.10;;;;;;5003211;28;20689;-77
2024/01/07 07:42:37;;;;;;;12.73;7.95;;;4.60;79.10;;;;;;5004972;28;20541;-78
2024/01/07 07:45:06;;;;;;;14.82;8.27;;;4.60;79.10;;;;;;5009327;28;20193;-78
2024/01/07 07:47:34;;;;;;;15.20;9.18;;;4.50;79.10;;;;;;5024863;28;20201;-78
2024/01/07 07:50:03;;;;;;;16.35;9.55;;;4.50;79.10;;;;;;5013055;28;20233;-79
2024/01/07 07:52:34;;;;;;;14.05;9.50;;;4.50;79.00;;;;;;5011970;28;20198;-79
2024/01/07 07:55:02;;;;;;;13.73;8.55;;;4.50;79.00;;;;;;5015970;28;20308;-79
2024/01/07 07:57:30;;;;;;;15.65;9.00;;;4.40;78.90;;;;;;5012283;28;20210;-79
2024/01/07 07:59:58;;;;;;;22.63;13.45;;;4.40;78.90;;;;;;5014643;28;20205;-79
2024/01/07 08:02:33;;;;;;;12.02;7.88;;;4.40;78.90;;;;;;5012470;28;20226;-79
2024/01/07 08:05:01;;;;;;;13.00;8.52;;;4.40;78.80;;;;;;5012624;28;20202;-78
2024/01/07 08:07:29;;;;;;;14.60;8.70;;;4.40;78.60;;;;;;5014722;28;20211;-78
2024/01/07 08:09:59;;;;;;;13.63;8.18;;;4.40;78.60;;;;;;5008358;28;20288;-79
2024/01/07 08:12:27;;;;;;;12.27;8.02;;;4.30;78.70;;;;;;5012619;28;20546;-79
2024/01/07 08:14:55;;;;;;;14.10;9.30;;;4.30;78.80;;;;;;5004921;28;20217;-78
2024/01/07 08:17:23;;;;;;;15.77;9.95;;;4.30;78.70;;;;;;5011975;28;20197;-78
2024/01/07 08:19:54;;;;;;;14.10;9.32;;;4.30;78.70;;;;;;5008696;28;20197;-78
2024/01/07 08:22:22;;;;;;;16.08;8.98;;;4.30;78.60;;;;;;5012641;28;20560;-79
2024/01/07 08:24:51;;;;;;;14.90;8.85;;;4.30;78.60;;;;;;5011182;28;20197;-78
2024/01/07 08:27:21;;;;;;;11.88;7.78;;;4.40;78.60;;;;;;5011026;28;20240;-79
2024/01/07 08:29:49;;;;;;;14.75;7.75;;;4.40;78.60;;;;;;5015280;28;20193;-79
2024/01/07 08:32:17;;;;;;;12.57;7.78;;;4.30;78.50;;;;;;5008439;28;20627;-80
2024/01/07 08:34:45;;;;;;;11.18;7.15;;;4.40;78.40;;;;;;5007940;28;20210;-79
2024/01/07 08:37:13;;;;;;;12.10;7.65;;;4.50;78.50;;;;;;5017894;28;20197;-79
2024/01/07 08:39:41;;;;;;;12.82;7.90;;;4.40;78.10;;;;;;5018223;28;20618;-79
2024/01/07 08:42:09;;;;;;;13.73;8.68;;;4.40;77.70;;;;;;5016798;28;20209;-79
2024/01/07 08:44:39;;;;;;;14.68;8.68;;;4.30;77.90;;;;;;5013423;28;20261;-78
2024/01/07 08:47:07;;;;;;;12.75;7.97;;;4.30;78.00;;;;;;5013826;28;20208;-78
2024/01/07 08:49:35;;;;;;;12.30;7.22;;;4.30;77.90;;;;;;5022702;28;20213;-78
2024/01/07 08:52:04;;;;;;;12.55;8.20;;;4.30;77.90;;;;;;5008786;28;20233;-78
2024/01/07 08:54:33;;;;;;;12.45;8.50;;;4.40;77.90;;;;;;5014942;28;20198;-78
2024/01/07 08:57:01;;;;;;;12.57;7.55;;;4.40;77.90;;;;;;5027916;28;20252;-78
2024/01/07 08:59:29;;;;;;;13.55;7.78;;;4.40;77.80;;;;;;5016877;28;20812;-78
2024/01/07 09:01:58;;;;;;;15.13;8.88;;;4.40;77.70;;;;;;5014777;28;20315;-78
2024/01/07 09:04:26;;;;;;;16.48;9.57;;;4.30;77.40;;;;;;5021359;28;20205;-78
2024/01/07 09:06:54;;;;;;;13.88;7.57;;;4.40;77.70;;;;;;5023078;28;20225;-79
2024/01/07 09:09:22;;;;;;;10.93;6.75;;;4.40;77.60;;;;;;5020503;28;20281;-79
2024/01/07 09:11:51;;;;;;;13.70;9.32;;;4.40;77.30;;;;;;5019179;28;20214;-79
2024/01/07 09:14:20;;;;;;;12.88;7.70;;;4.40;77.40;;;;;;5017132;28;20230;-78
2024/01/07 09:16:48;;;;;;;16.80;10.18;;;4.50;77.50;;;;;;5019176;28;20638;-79
2024/01/07 09:19:17;;;;;;;12.32;7.78;;;4.50;77.30;;;;;;5021351;28;20294;-79
2024/01/07 09:21:45;;;;;;;12.00;7.68;;;4.50;77.10;;;;;;5016340;28;20198;-79
2024/01/07 09:24:13;;;;;;;13.07;8.88;;;4.50;76.90;;;;;;5020743;28;20647;-79
2024/01/07 09:26:41;;;;;;;16.00;8.50;;;4.50;77.00;;;;;;5019736;28;20233;-79
2024/01/07 09:29:10;;;;;;;12.13;8.60;;;4.50;77.10;;;;;;5024111;28;20202;-79
2024/01/07 09:31:38;;;;;;;13.13;8.35;;;4.60;77.30;;;;;;5016628;28;20229;-79
2024/01/07 09:34:06;;;;;;;12.02;7.30;;;4.70;77.20;;;;;;5025170;28;20206;-79
2024/01/07 09:36:36;;;;;;;11.63;7.50;;;4.70;76.80;;;;;;5020571;28;20228;-79
2024/01/07 09:39:06;;;;;;;15.45;8.77;;;4.60;76.50;;;;;;5020959;28;20233;-79
2024/01/07 09:41:34;;;;;;;20.95;9.43;;;4.50;76.40;;;;;;5022133;28;20632;-79
2024/01/07 09:44:03;;;;;;;21.80;12.25;;;4.50;76.70;;;;;;5019707;28;20206;-79
2024/01/07 09:46:33;;;;;;;17.40;10.55;;;4.60;76.90;;;;;;5020801;28;20238;-79
2024/01/07 09:49:01;;;;;;;16.48;10.05;;;4.60;76.70;;;;;;5006896;28;20194;-77
2024/01/07 09:51:38;;;;;;;27.25;14.63;;;4.60;76.40;;;;;;5009897;28;20222;-76
2024/01/07 09:54:14;;;;;;;27.58;14.85;;;4.60;76.30;;;;;;5008453;28;20220;-77
2024/01/07 09:56:51;;;;;;;15.23;10.25;;;4.50;76.10;;;;;;5006225;28;20229;-77
2024/01/07 09:59:19;;;;;;;27.63;14.80;;;4.40;75.80;;;;;;5002501;28;20220;-78
2024/01/07 10:01:48;;;;;;;17.27;11.43;;;4.30;76.00;;;;;;5006562;28;20237;-77
2024/01/07 10:04:19;;;;;;;20.00;11.98;;;4.20;76.00;;;;;;5005562;28;20695;-77
2024/01/07 10:06:50;;;;;;;21.85;12.00;;;4.20;76.00;;;;;;5021790;28;20302;-77
2024/01/07 10:09:19;;;;;;;21.27;11.93;;;4.10;76.10;;;;;;5002815;28;20217;-77
2024/01/07 10:11:52;;;;;;;28.95;14.93;;;4.20;76.10;;;;;;5006943;28;20217;-77
2024/01/07 10:14:24;;;;;;;17.00;10.45;;;4.20;76.10;;;;;;5006756;28;20554;-78
2024/01/07 10:16:58;;;;;;;22.58;12.05;;;4.20;76.20;;;;;;5009504;28;20240;-78
2024/01/07 10:19:30;;;;;;;21.08;11.20;;;4.20;76.30;;;;;;5013406;28;20611;-78
2024/01/07 10:22:05;;;;;;;17.67;10.40;;;4.10;76.20;;;;;;5014413;28;20373;-77
2024/01/07 10:24:39;;;;;;;19.83;12.02;;;4.10;76.20;;;;;;5007920;28;20213;-78
2024/01/07 10:27:08;;;;;;;18.10;10.73;;;4.20;76.30;;;;;;5008945;28;20233;-78
2024/01/07 10:29:49;;;;;;;16.92;10.45;;;4.20;76.20;;;;;;5012574;28;20201;-78
2024/01/07 10:32:20;;;;;;;20.30;11.25;;;4.10;76.00;;;;;;5011400;28;20386;-78
2024/01/07 10:34:57;;;;;;;16.98;10.00;;;4.10;76.10;;;;;;5024371;28;20232;-78
2024/01/07 10:37:42;;;;;;;20.80;11.90;;;4.10;75.90;;;;;;5015176;28;20225;-79
2024/01/07 10:40:13;;;;;;;19.65;10.68;;;4.00;75.90;;;;;;4996596;28;20269;-78
2024/01/07 10:42:45;;;;;;;21.63;11.57;;;4.00;75.90;;;;;;5006412;28;20218;-78
2024/01/07 10:45:16;;;;;;;21.10;13.50;;;4.00;76.00;;;;;;5025338;28;20310;-78
2024/01/07 10:47:50;;;;;;;23.77;12.15;;;4.00;76.00;;;;;;5009288;28;20288;-78
2024/01/07 10:50:20;;;;;;;20.60;10.40;;;4.00;75.90;;;;;;5002935;28;20213;-77
2024/01/07 10:52:52;;;;;;;22.45;13.13;;;4.00;75.80;;;;;;5010653;28;20244;-77
2024/01/07 10:55:26;;;;;;;18.42;10.80;;;3.90;75.70;;;;;;5005966;28;20212;-78
2024/01/07 10:58:00;;;;;;;23.02;11.80;;;3.90;75.70;;;;;;5011431;28;20673;-77
2024/01/07 11:00:30;;;;;;;16.15;10.15;;;3.90;75.80;;;;;;5008098;28;20276;-77
2024/01/07 11:03:07;;;;;;;23.15;12.15;;;3.90;75.70;;;;;;5020327;28;20571;-77
2024/01/07 11:05:42;;;;;;;17.75;11.27;;;3.80;75.70;;;;;;5010412;28;20201;-77
2024/01/07 11:08:25;;;;;;;24.13;12.93;;;3.80;75.60;;;;;;5012328;28;20641;-77
2024/01/07 11:10:59;;;;;;;24.25;11.80;;;3.70;75.70;;;;;;5006598;28;20201;-77
2024/01/07 11:13:37;;;;;;;21.88;11.15;;;3.70;75.90;;;;;;5006990;28;20623;-77
2024/01/07 11:16:10;;;;;;;18.30;10.95;;;3.70;75.80;;;;;;5004995;28;20846;-77
2024/01/07 11:18:52;;;;;;;18.25;9.68;;;3.70;75.70;;;;;;5005779;28;20205;-77
2024/01/07 11:21:26;;;;;;;18.55;10.77;;;3.70;75.40;;;;;;4994566;28;20202;-77
2024/01/07 11:23:58;;;;;;;19.08;10.55;;;3.60;75.40;;;;;;5027001;28;20241;-77
2024/01/07 11:26:30;;;;;;;17.92;10.73;;;3.60;75.40;;;;;;5002711;28;20214;-77
2024/01/07 11:29:01;;;;;;;18.25;10.27;;;3.60;75.60;;;;;;5010404;28;20281;-78
2024/01/07 11:31:48;;;;;;;21.88;12.40;;;3.50;75.60;;;;;;5014388;28;20300;-77
2024/01/07 11:34:51;;;;;;;19.27;10.52;;;3.60;75.70;;;;;;5027118;28;20206;-77
2024/01/07 11:37:23;;;;;;;25.95;17.27;;;3.60;75.60;;;;;;5013679;28;20213;-78
2024/01/07 11:39:58;;;;;;;22.98;14.63;;;3.60;75.30;;;;;;5012820;28;20206;-77
2024/01/07 11:42:30;;;;;;;37.67;24.33;;;3.60;75.30;;;;;;5006429;28;20940;-77
2024/01/07 11:45:10;;;;;;;22.23;11.88;;;3.50;75.20;;;;;;5013298;28;20225;-77
2024/01/07 11:47:42;;;;;;;15.55;10.73;;;3.40;75.10;;;;;;5024926;28;20213;-78
2024/01/07 11:50:11;;;;;;;14.90;9.80;;;3.30;75.00;;;;;;5012915;28;20206;-77
2024/01/07 11:52:43;;;;;;;17.38;10.98;;;3.30;75.10;;;;;;5008502;28;20224;-78
2024/01/07 11:55:15;;;;;;;16.17;12.02;;;3.20;75.10;;;;;;5008273;28;20342;-78
2024/01/07 11:57:44;;;;;;;21.40;12.70;;;3.20;75.10;;;;;;5027789;28;20245;-78
2024/01/07 12:00:14;;;;;;;16.88;10.13;;;3.20;75.10;;;;;;5026119;28;20202;-77
2024/01/07 12:02:43;;;;;;;17.83;11.55;;;3.20;75.00;;;;;;5006061;28;20201;-76
2024/01/07 12:05:19;;;;;;;19.27;11.75;;;3.20;75.00;;;;;;5004963;28;20228;-77
2024/01/07 12:07:48;;;;;;;14.50;8.93;;;3.30;75.10;;;;;;5021544;28;20293;-77
2024/01/07 12:10:19;;;;;;;27.10;17.35;;;3.30;74.90;;;;;;5005314;28;20201;-77
2024/01/07 12:12:55;;;;;;;14.82;9.65;;;3.30;75.00;;;;;;5002822;28;20212;-77
2024/01/07 12:15:24;;;;;;;19.50;11.45;;;3.20;74.70;;;;;;5001085;28;20205;-77
2024/01/07 12:18:01;;;;;;;18.40;13.43;;;3.20;74.60;;;;;;5005689;28;20218;-77
2024/01/07 12:20:33;;;;;;;16.10;11.05;;;3.20;74.80;;;;;;5007395;28;20250;-77
2024/01/07 12:23:13;;;;;;;20.80;14.82;;;3.20;74.80;;;;;;5003106;28;20220;-77
2024/01/07 12:25:44;;;;;;;14.70;9.02;;;3.20;74.70;;;;;;5004125;28;20205;-78
2024/01/07 12:28:13;;;;;;;14.98;9.90;;;3.20;74.70;;;;;;5009789;28;20289;-78
2024/01/07 12:30:43;;;;;;;13.45;8.18;;;3.20;74.50;;;;;;5024902;28;20734;-78
2024/01/07 12:33:17;;;;;;;13.23;9.05;;;3.20;74.40;;;;;;5003094;28;20264;-77
2024/01/07 12:35:51;;;;;;;17.52;10.50;;;3.10;74.50;;;;;;5009646;28;20240;-78
2024/01/07 12:38:24;;;;;;;12.95;8.80;;;3.10;74.50;;;;;;5009649;28;20225;-77
2024/01/07 12:40:57;;;;;;;16.13;8.82;;;3.10;74.50;;;;;;5025074;28;20201;-77
2024/01/07 12:43:25;;;;;;;13.45;8.30;;;3.10;74.50;;;;;;5020780;28;20214;-77
2024/01/07 12:45:55;;;;;;;12.20;8.38;;;3.10;74.50;;;;;;5005665;28;20842;-77
2024/01/07 12:48:23;;;;;;;14.75;8.55;;;3.10;74.50;;;;;;5025499;28;20198;-77
2024/01/07 12:50:51;;;;;;;16.63;9.20;;;3.10;74.40;;;;;;5002801;28;20201;-77
2024/01/07 12:53:19;;;;;;;14.57;8.57;;;3.10;74.20;;;;;;5007303;28;20224;-77